sensor_id;sensor_type;location;lat;lon;timestamp;pressure;altitude;pressure_sealevel;temperature;humidity
18835;BME280;9546;59.262;18.036;2022-07-21T00:00:59;64177.75;;;-139.62;100.00
18835;BME280;9546;59.262;18.036;2022-07-21T00:03:28;64177.75;;;-139.62;100.00
18835;BME280;9546;59.262;18.036;2022-07-21T00:05:54;64177.75;;;-139.62;100.00
18835;BME280;9546;59.262;18.036;2022-07-21T00:08:21;64177.75;;;-139.62;100.00
18835;BME280;9546;59.262;18.036;2022-07-21T00:10:48;64177.75;;;-139.62;100.00
18835;BME280;9546;59.262;18.036;2022-07-21T00:13:15;64177.75;;;-139.62;100.00
18835;BME280;9546;59.262;18.036;2022-07-21T00:15:42;64177.75;;;-139.62;100.00
18835;BME280;9546;59.262;18.036;2022-07-21T00:18:09;64177.75;;;-139.62;100.00
18835;BME280;9546;59.262;18.036;2022-07-21T00:20:38;64177.75;;;-139.62;100.00
18835;BME280;9546;59.262;18.036;2022-07-21T00:23:05;64177.75;;;-139.62;100.00
18835;BME280;9546;59.262;18.036;2022-07-21T00:25:32;64177.75;;;-139.62;100.00
18835;BME280;9546;59.262;18.036;2022-07-21T00:27:58;64177.75;;;-139.62;100.00
18835;BME280;9546;59.262;18.036;2022-07-21T00:30:25;64177.75;;;-139.62;100.00
18835;BME280;9546;59.262;18.036;2022-07-21T00:32:52;64177.75;;;-139.62;100.00
18835;BME280;9546;59.262;18.036;2022-07-21T00:35:19;64177.75;;;-139.62;100.00
18835;BME280;9546;59.262;18.036;2022-07-21T00:37:47;64177.75;;;-139.62;100.00
18835;BME280;9546;59.262;18.036;2022-07-21T00:40:14;64177.75;;;-139.62;100.00
18835;BME280;9546;59.262;18.036;2022-07-21T00:42:42;64177.75;;;-139.62;100.00
18835;BME280;9546;59.262;18.036;2022-07-21T00:45:10;64177.75;;;-139.62;100.00
18835;BME280;9546;59.262;18.036;2022-07-21T00:47:37;64177.75;;;-139.62;100.00
18835;BME280;9546;59.262;18.036;2022-07-21T00:50:07;64177.75;;;-139.62;100.00
18835;BME280;9546;59.262;18.036;2022-07-21T01:12:39;101160.22;;;24.01;100.00
18835;BME280;9546;59.262;18.036;2022-07-21T01:15:07;76792.47;;;24.00;100.00
18835;BME280;9546;59.262;18.036;2022-07-21T01:17:35;101155.56;;;24.60;100.00
18835;BME280;9546;59.262;18.036;2022-07-21T01:20:03;101143.41;;;24.52;100.00
18835;BME280;9546;59.262;18.036;2022-07-21T01:22:34;101143.41;;;24.52;100.00
18835;BME280;9546;59.262;18.036;2022-07-21T01:25:02;101149.03;;;24.96;100.00
18835;BME280;9546;59.262;18.036;2022-07-21T01:27:29;101151.88;;;25.18;100.00
18835;BME280;9546;59.262;18.036;2022-07-21T01:29:56;101138.66;;;25.20;100.00
18835;BME280;9546;59.262;18.036;2022-07-21T01:32:23;101138.66;;;25.20;100.00
18835;BME280;9546;59.262;18.036;2022-07-21T01:34:50;64177.75;;;-139.62;100.00
18835;BME280;9546;59.262;18.036;2022-07-21T01:37:20;64177.75;;;-139.62;100.00
18835;BME280;9546;59.262;18.036;2022-07-21T01:39:49;64177.75;;;-139.62;100.00
18835;BME280;9546;59.262;18.036;2022-07-21T01:42:33;64177.75;;;-139.62;100.00
18835;BME280;9546;59.262;18.036;2022-07-21T01:45:00;64177.75;;;-139.62;100.00
18835;BME280;9546;59.262;18.036;2022-07-21T01:47:27;64177.75;;;-139.62;100.00
18835;BME280;9546;59.262;18.036;2022-07-21T01:49:54;64177.75;;;-139.62;100.00
18835;BME280;9546;59.262;18.036;2022-07-21T01:52:21;64177.75;;;-139.62;100.00
18835;BME280;9546;59.262;18.036;2022-07-21T01:54:51;64177.75;;;-139.62;100.00
18835;BME280;9546;59.262;18.036;2022-07-21T01:57:18;64177.75;;;-139.62;100.00
18835;BME280;9546;59.262;18.036;2022-07-21T01:59:45;64177.75;;;-139.62;100.00
18835;BME280;9546;59.262;18.036;2022-07-21T02:02:12;64177.75;;;-139.62;100.00
18835;BME280;9546;59.262;18.036;2022-07-21T02:04:39;64177.75;;;-139.62;100.00
18835;BME280;9546;59.262;18.036;2022-07-21T02:07:06;64177.75;;;-139.62;100.00
18835;BME280;9546;59.262;18.036;2022-07-21T02:09:33;64177.75;;;-139.62;100.00
18835;BME280;9546;59.262;18.036;2022-07-21T02:12:01;64177.75;;;-139.62;100.00
18835;BME280;9546;59.262;18.036;2022-07-21T02:14:28;64177.75;;;-139.62;100.00
18835;BME280;9546;59.262;18.036;2022-07-21T02:16:54;64177.75;;;-139.62;100.00
18835;BME280;9546;59.262;18.036;2022-07-21T02:19:21;64177.75;;;-139.62;100.00
18835;BME280;9546;59.262;18.036;2022-07-21T02:21:48;64177.75;;;-139.62;100.00
18835;BME280;9546;59.262;18.036;2022-07-21T02:24:15;64177.75;;;-139.62;100.00
18835;BME280;9546;59.262;18.036;2022-07-21T02:26:42;64177.75;;;-139.62;100.00
18835;BME280;9546;59.262;18.036;2022-07-21T02:29:10;64177.75;;;-139.62;100.00
18835;BME280;9546;59.262;18.036;2022-07-21T02:31:37;64177.75;;;-139.62;100.00
18835;BME280;9546;59.262;18.036;2022-07-21T02:34:03;64177.75;;;-139.62;100.00
18835;BME280;9546;59.262;18.036;2022-07-21T02:36:31;64177.75;;;-139.62;100.00
18835;BME280;9546;59.262;18.036;2022-07-21T02:38:58;64177.75;;;-139.62;100.00
18835;BME280;9546;59.262;18.036;2022-07-21T02:41:25;64177.75;;;-139.62;100.00
18835;BME280;9546;59.262;18.036;2022-07-21T02:43:52;64177.75;;;-139.62;100.00
18835;BME280;9546;59.262;18.036;2022-07-21T02:46:20;64177.75;;;-139.62;100.00
18835;BME280;9546;59.262;18.036;2022-07-21T02:48:47;64177.75;;;-139.62;100.00
18835;BME280;9546;59.262;18.036;2022-07-21T03:12:34;101124.84;;;23.91;100.00
18835;BME280;9546;59.262;18.036;2022-07-21T03:15:01;101124.84;;;23.91;100.00
18835;BME280;9546;59.262;18.036;2022-07-21T03:17:28;64177.75;;;-139.62;100.00
18835;BME280;9546;59.262;18.036;2022-07-21T03:19:55;101115.06;;;25.10;100.00
18835;BME280;9546;59.262;18.036;2022-07-21T03:22:21;101112.78;;;24.77;100.00
18835;BME280;9546;59.262;18.036;2022-07-21T03:24:48;101091.38;;;24.52;100.00
18835;BME280;9546;59.262;18.036;2022-07-21T03:27:16;101104.22;;;24.92;100.00
18835;BME280;9546;59.262;18.036;2022-07-21T03:29:44;64177.75;;;-139.62;100.00
18835;BME280;9546;59.262;18.036;2022-07-21T03:32:11;64177.75;;;-139.62;100.00
18835;BME280;9546;59.262;18.036;2022-07-21T03:34:38;64177.75;;;-139.62;100.00
18835;BME280;9546;59.262;18.036;2022-07-21T03:37:04;64177.75;;;-139.62;100.00
18835;BME280;9546;59.262;18.036;2022-07-21T03:39:31;64177.75;;;-139.62;100.00
18835;BME280;9546;59.262;18.036;2022-07-21T03:41:58;64177.75;;;-139.62;100.00
18835;BME280;9546;59.262;18.036;2022-07-21T03:44:25;64177.75;;;-139.62;100.00
18835;BME280;9546;59.262;18.036;2022-07-21T03:46:53;64177.75;;;-139.62;100.00
18835;BME280;9546;59.262;18.036;2022-07-21T03:49:21;64177.75;;;-139.62;100.00
18835;BME280;9546;59.262;18.036;2022-07-21T03:51:48;64177.75;;;-139.62;100.00
18835;BME280;9546;59.262;18.036;2022-07-21T03:54:15;64177.75;;;-139.62;100.00
18835;BME280;9546;59.262;18.036;2022-07-21T03:56:42;64177.75;;;-139.62;100.00
18835;BME280;9546;59.262;18.036;2022-07-21T03:59:09;64177.75;;;-139.62;100.00
18835;BME280;9546;59.262;18.036;2022-07-21T04:01:36;64177.75;;;-139.62;100.00
18835;BME280;9546;59.262;18.036;2022-07-21T04:04:04;64177.75;;;-139.62;100.00
18835;BME280;9546;59.262;18.036;2022-07-21T04:06:31;64177.75;;;-139.62;100.00
18835;BME280;9546;59.262;18.036;2022-07-21T04:08:58;64177.75;;;-139.62;100.00
18835;BME280;9546;59.262;18.036;2022-07-21T04:11:24;64177.75;;;-139.62;100.00
18835;BME280;9546;59.262;18.036;2022-07-21T04:13:51;64177.75;;;-139.62;100.00
18835;BME280;9546;59.262;18.036;2022-07-21T04:16:18;64177.75;;;-139.62;100.00
18835;BME280;9546;59.262;18.036;2022-07-21T04:18:45;64177.75;;;-139.62;100.00
18835;BME280;9546;59.262;18.036;2022-07-21T04:21:13;64177.75;;;-139.62;100.00
18835;BME280;9546;59.262;18.036;2022-07-21T04:23:40;64177.75;;;-139.62;100.00
18835;BME280;9546;59.262;18.036;2022-07-21T04:26:07;64177.75;;;-139.62;100.00
18835;BME280;9546;59.262;18.036;2022-07-21T04:28:33;64177.75;;;-139.62;100.00
18835;BME280;9546;59.262;18.036;2022-07-21T04:31:00;64177.75;;;-139.62;100.00
18835;BME280;9546;59.262;18.036;2022-07-21T04:33:27;64177.75;;;-139.62;100.00
18835;BME280;9546;59.262;18.036;2022-07-21T04:35:54;64177.75;;;-139.62;100.00
18835;BME280;9546;59.262;18.036;2022-07-21T04:38:22;64177.75;;;-139.62;100.00
18835;BME280;9546;59.262;18.036;2022-07-21T04:40:49;64177.75;;;-139.62;100.00
18835;BME280;9546;59.262;18.036;2022-07-21T04:43:16;64177.75;;;-139.62;100.00
18835;BME280;9546;59.262;18.036;2022-07-21T04:45:42;64177.75;;;-139.62;100.00
18835;BME280;9546;59.262;18.036;2022-07-21T04:48:09;64177.75;;;-139.62;100.00
18835;BME280;9546;59.262;18.036;2022-07-21T04:50:36;64177.75;;;-139.62;100.00
18835;BME280;9546;59.262;18.036;2022-07-21T05:11:50;101071.69;;;26.30;100.00
18835;BME280;9546;59.262;18.036;2022-07-21T05:14:17;101072.66;;;26.89;100.00
18835;BME280;9546;59.262;18.036;2022-07-21T05:16:44;101044.22;;;26.94;100.00
18835;BME280;9546;59.262;18.036;2022-07-21T05:19:11;101069.44;;;27.29;100.00
18835;BME280;9546;59.262;18.036;2022-07-21T05:21:38;101068.13;;;27.60;100.00
18835;BME280;9546;59.262;18.036;2022-07-21T05:24:05;64177.75;;;-139.62;100.00
18835;BME280;9546;59.262;18.036;2022-07-21T05:26:32;64177.75;;;-139.62;100.00
18835;BME280;9546;59.262;18.036;2022-07-21T05:29:00;64177.75;;;-139.62;100.00
18835;BME280;9546;59.262;18.036;2022-07-21T05:31:27;64177.75;;;-139.62;100.00
18835;BME280;9546;59.262;18.036;2022-07-21T05:33:54;64177.75;;;-139.62;100.00
18835;BME280;9546;59.262;18.036;2022-07-21T05:36:20;64177.75;;;-139.62;100.00
18835;BME280;9546;59.262;18.036;2022-07-21T05:38:47;64177.75;;;-139.62;100.00
18835;BME280;9546;59.262;18.036;2022-07-21T05:41:14;64177.75;;;-139.62;100.00
18835;BME280;9546;59.262;18.036;2022-07-21T05:43:41;64177.75;;;-139.62;100.00
18835;BME280;9546;59.262;18.036;2022-07-21T05:46:09;64177.75;;;-139.62;100.00
18835;BME280;9546;59.262;18.036;2022-07-21T05:48:36;64177.75;;;-139.62;100.00
18835;BME280;9546;59.262;18.036;2022-07-21T05:51:03;64177.75;;;-139.62;100.00
18835;BME280;9546;59.262;18.036;2022-07-21T05:53:29;64177.75;;;-139.62;100.00
18835;BME280;9546;59.262;18.036;2022-07-21T05:55:56;64177.75;;;-139.62;100.00
18835;BME280;9546;59.262;18.036;2022-07-21T05:58:23;64177.75;;;-139.62;100.00
18835;BME280;9546;59.262;18.036;2022-07-21T06:00:50;64177.75;;;-139.62;100.00
18835;BME280;9546;59.262;18.036;2022-07-21T06:03:32;64177.75;;;-139.62;100.00
18835;BME280;9546;59.262;18.036;2022-07-21T06:05:59;64177.75;;;-139.62;100.00
18835;BME280;9546;59.262;18.036;2022-07-21T06:08:26;64177.75;;;-139.62;100.00
18835;BME280;9546;59.262;18.036;2022-07-21T06:10:52;64177.75;;;-139.62;100.00
18835;BME280;9546;59.262;18.036;2022-07-21T06:13:19;64177.75;;;-139.62;100.00
18835;BME280;9546;59.262;18.036;2022-07-21T06:15:46;64177.75;;;-139.62;100.00
18835;BME280;9546;59.262;18.036;2022-07-21T06:18:13;64177.75;;;-139.62;100.00
18835;BME280;9546;59.262;18.036;2022-07-21T06:20:42;64177.75;;;-139.62;100.00
18835;BME280;9546;59.262;18.036;2022-07-21T06:23:08;64177.75;;;-139.62;100.00
18835;BME280;9546;59.262;18.036;2022-07-21T06:25:35;64177.75;;;-139.62;100.00
18835;BME280;9546;59.262;18.036;2022-07-21T06:28:02;64177.75;;;-139.62;100.00
18835;BME280;9546;59.262;18.036;2022-07-21T06:30:29;64177.75;;;-139.62;100.00
18835;BME280;9546;59.262;18.036;2022-07-21T06:32:57;64177.75;;;-139.62;100.00
18835;BME280;9546;59.262;18.036;2022-07-21T06:35:23;64177.75;;;-139.62;100.00
18835;BME280;9546;59.262;18.036;2022-07-21T06:37:52;64177.75;;;-139.62;100.00
18835;BME280;9546;59.262;18.036;2022-07-21T06:40:18;64177.75;;;-139.62;100.00
18835;BME280;9546;59.262;18.036;2022-07-21T06:42:45;64177.75;;;-139.62;100.00
18835;BME280;9546;59.262;18.036;2022-07-21T06:45:12;64177.75;;;-139.62;100.00
18835;BME280;9546;59.262;18.036;2022-07-21T06:47:39;64177.75;;;-139.62;100.00
18835;BME280;9546;59.262;18.036;2022-07-21T06:50:07;64177.75;;;-139.62;100.00
18835;BME280;9546;59.262;18.036;2022-07-21T07:12:10;101029.72;;;29.89;100.00
18835;BME280;9546;59.262;18.036;2022-07-21T07:14:37;101027.06;;;29.92;100.00
18835;BME280;9546;59.262;18.036;2022-07-21T07:17:03;101027.66;;;30.09;100.00
18835;BME280;9546;59.262;18.036;2022-07-21T07:19:30;101031.25;;;30.45;100.00
18835;BME280;9546;59.262;18.036;2022-07-21T07:21:58;101025.38;;;30.47;100.00
18835;BME280;9546;59.262;18.036;2022-07-21T07:24:25;101029.41;;;30.38;100.00
18835;BME280;9546;59.262;18.036;2022-07-21T07:26:52;64177.75;;;-139.62;100.00
18835;BME280;9546;59.262;18.036;2022-07-21T07:29:20;64177.75;;;-139.62;100.00
18835;BME280;9546;59.262;18.036;2022-07-21T07:31:47;64177.75;;;-139.62;100.00
18835;BME280;9546;59.262;18.036;2022-07-21T07:34:14;64177.75;;;-139.62;100.00
18835;BME280;9546;59.262;18.036;2022-07-21T07:36:40;64177.75;;;-139.62;100.00
18835;BME280;9546;59.262;18.036;2022-07-21T07:39:07;64177.75;;;-139.62;100.00
18835;BME280;9546;59.262;18.036;2022-07-21T07:41:34;64177.75;;;-139.62;100.00
18835;BME280;9546;59.262;18.036;2022-07-21T07:44:01;64177.75;;;-139.62;100.00
18835;BME280;9546;59.262;18.036;2022-07-21T07:46:29;64177.75;;;-139.62;100.00
18835;BME280;9546;59.262;18.036;2022-07-21T07:48:56;64177.75;;;-139.62;100.00
18835;BME280;9546;59.262;18.036;2022-07-21T07:51:25;64177.75;;;-139.62;100.00
18835;BME280;9546;59.262;18.036;2022-07-21T07:53:52;64177.75;;;-139.62;100.00
18835;BME280;9546;59.262;18.036;2022-07-21T07:56:18;64177.75;;;-139.62;100.00
18835;BME280;9546;59.262;18.036;2022-07-21T07:58:45;64177.75;;;-139.62;100.00
18835;BME280;9546;59.262;18.036;2022-07-21T08:01:12;64177.75;;;-139.62;100.00
18835;BME280;9546;59.262;18.036;2022-07-21T08:03:43;64177.75;;;-139.62;100.00
18835;BME280;9546;59.262;18.036;2022-07-21T08:06:09;64177.75;;;-139.62;100.00
18835;BME280;9546;59.262;18.036;2022-07-21T08:08:36;64177.75;;;-139.62;100.00
18835;BME280;9546;59.262;18.036;2022-07-21T08:11:03;64177.75;;;-139.62;100.00
18835;BME280;9546;59.262;18.036;2022-07-21T08:13:30;64177.75;;;-139.62;100.00
18835;BME280;9546;59.262;18.036;2022-07-21T08:15:57;64177.75;;;-139.62;100.00
18835;BME280;9546;59.262;18.036;2022-07-21T08:18:24;64177.75;;;-139.62;100.00
18835;BME280;9546;59.262;18.036;2022-07-21T08:20:52;64177.75;;;-139.62;100.00
18835;BME280;9546;59.262;18.036;2022-07-21T08:23:19;64177.75;;;-139.62;100.00
18835;BME280;9546;59.262;18.036;2022-07-21T08:25:46;64177.75;;;-139.62;100.00
18835;BME280;9546;59.262;18.036;2022-07-21T08:28:13;64177.75;;;-139.62;100.00
18835;BME280;9546;59.262;18.036;2022-07-21T08:30:40;64177.75;;;-139.62;100.00
18835;BME280;9546;59.262;18.036;2022-07-21T08:33:07;64177.75;;;-139.62;100.00
18835;BME280;9546;59.262;18.036;2022-07-21T08:35:34;64177.75;;;-139.62;100.00
18835;BME280;9546;59.262;18.036;2022-07-21T08:38:04;64177.75;;;-139.62;100.00
18835;BME280;9546;59.262;18.036;2022-07-21T08:40:34;64177.75;;;-139.62;100.00
18835;BME280;9546;59.262;18.036;2022-07-21T08:43:02;64177.75;;;-139.62;100.00
18835;BME280;9546;59.262;18.036;2022-07-21T08:45:29;64177.75;;;-139.62;100.00
18835;BME280;9546;59.262;18.036;2022-07-21T08:47:57;64177.75;;;-139.62;100.00
18835;BME280;9546;59.262;18.036;2022-07-21T08:50:26;64177.75;;;-139.62;100.00
18835;BME280;9546;59.262;18.036;2022-07-21T09:12:29;100991.31;;;33.69;100.00
18835;BME280;9546;59.262;18.036;2022-07-21T09:15:12;100972.28;;;34.15;100.00
18835;BME280;9546;59.262;18.036;2022-07-21T09:17:39;100991.59;;;34.56;100.00
18835;BME280;9546;59.262;18.036;2022-07-21T09:20:20;100949.97;;;34.63;100.00
18835;BME280;9546;59.262;18.036;2022-07-21T09:23:01;100985.81;;;35.27;100.00
18835;BME280;9546;59.262;18.036;2022-07-21T09:25:39;100986.09;;;35.51;100.00
18835;BME280;9546;59.262;18.036;2022-07-21T09:28:14;100986.09;;;35.51;100.00
18835;BME280;9546;59.262;18.036;2022-07-21T09:30:55;100968.66;;;35.25;100.00
18835;BME280;9546;59.262;18.036;2022-07-21T09:33:37;64177.75;;;-139.62;100.00
18835;BME280;9546;59.262;18.036;2022-07-21T09:36:19;64177.75;;;-139.62;100.00
18835;BME280;9546;59.262;18.036;2022-07-21T09:38:50;64177.75;;;-139.62;100.00
18835;BME280;9546;59.262;18.036;2022-07-21T09:41:18;64177.75;;;-139.62;100.00
18835;BME280;9546;59.262;18.036;2022-07-21T09:43:50;64177.75;;;-139.62;100.00
18835;BME280;9546;59.262;18.036;2022-07-21T09:46:19;64177.75;;;-139.62;100.00
18835;BME280;9546;59.262;18.036;2022-07-21T09:48:47;64177.75;;;-139.62;100.00
18835;BME280;9546;59.262;18.036;2022-07-21T09:51:26;64177.75;;;-139.62;100.00
18835;BME280;9546;59.262;18.036;2022-07-21T09:53:57;64177.75;;;-139.62;100.00
18835;BME280;9546;59.262;18.036;2022-07-21T09:56:25;64177.75;;;-139.62;100.00
18835;BME280;9546;59.262;18.036;2022-07-21T09:58:55;64177.75;;;-139.62;100.00
18835;BME280;9546;59.262;18.036;2022-07-21T10:01:24;64177.75;;;-139.62;100.00
18835;BME280;9546;59.262;18.036;2022-07-21T10:03:51;64177.75;;;-139.62;100.00
18835;BME280;9546;59.262;18.036;2022-07-21T10:06:20;64177.75;;;-139.62;100.00
18835;BME280;9546;59.262;18.036;2022-07-21T10:08:49;64177.75;;;-139.62;100.00
18835;BME280;9546;59.262;18.036;2022-07-21T10:11:16;64177.75;;;-139.62;100.00
18835;BME280;9546;59.262;18.036;2022-07-21T10:13:43;64177.75;;;-139.62;100.00
18835;BME280;9546;59.262;18.036;2022-07-21T10:16:11;64177.75;;;-139.62;100.00
18835;BME280;9546;59.262;18.036;2022-07-21T10:18:45;64177.75;;;-139.62;100.00
18835;BME280;9546;59.262;18.036;2022-07-21T10:21:39;64177.75;;;-139.62;100.00
18835;BME280;9546;59.262;18.036;2022-07-21T10:24:10;64177.75;;;-139.62;100.00
18835;BME280;9546;59.262;18.036;2022-07-21T10:26:37;64177.75;;;-139.62;100.00
18835;BME280;9546;59.262;18.036;2022-07-21T10:29:04;64177.75;;;-139.62;100.00
18835;BME280;9546;59.262;18.036;2022-07-21T10:31:41;64177.75;;;-139.62;100.00
18835;BME280;9546;59.262;18.036;2022-07-21T10:34:09;64177.75;;;-139.62;100.00
18835;BME280;9546;59.262;18.036;2022-07-21T10:36:45;64177.75;;;-139.62;100.00
18835;BME280;9546;59.262;18.036;2022-07-21T10:39:21;64177.75;;;-139.62;100.00
18835;BME280;9546;59.262;18.036;2022-07-21T10:41:50;64177.75;;;-139.62;100.00
18835;BME280;9546;59.262;18.036;2022-07-21T10:44:42;64177.75;;;-139.62;100.00
18835;BME280;9546;59.262;18.036;2022-07-21T10:47:12;64177.75;;;-139.62;100.00
18835;BME280;9546;59.262;18.036;2022-07-21T10:49:51;64177.75;;;-139.62;100.00
18835;BME280;9546;59.262;18.036;2022-07-21T11:12:18;100955.75;;;35.42;89.72
18835;BME280;9546;59.262;18.036;2022-07-21T11:14:45;100965.09;;;37.41;63.25
18835;BME280;9546;59.262;18.036;2022-07-21T11:17:24;100945.94;;;37.57;60.76
18835;BME280;9546;59.262;18.036;2022-07-21T11:19:51;100965.97;;;37.80;60.31
18835;BME280;9546;59.262;18.036;2022-07-21T11:22:20;100963.09;;;37.52;56.88
18835;BME280;9546;59.262;18.036;2022-07-21T11:24:50;100971.19;;;38.09;54.23
18835;BME280;9546;59.262;18.036;2022-07-21T11:27:21;100964.31;;;38.66;54.49
18835;BME280;9546;59.262;18.036;2022-07-21T11:29:49;100957.78;;;39.00;50.75
18835;BME280;9546;59.262;18.036;2022-07-21T11:32:16;100963.25;;;39.92;50.97
18835;BME280;9546;59.262;18.036;2022-07-21T11:34:47;100960.03;;;39.93;48.45
18835;BME280;9546;59.262;18.036;2022-07-21T11:37:16;100963.44;;;39.64;48.42
18835;BME280;9546;59.262;18.036;2022-07-21T11:39:44;100953.97;;;39.44;46.43
18835;BME280;9546;59.262;18.036;2022-07-21T11:42:14;100964.34;;;40.01;46.06
18835;BME280;9546;59.262;18.036;2022-07-21T11:44:43;100964.34;;;40.01;46.06
18835;BME280;9546;59.262;18.036;2022-07-21T11:47:12;100954.22;;;40.11;43.32
18835;BME280;9546;59.262;18.036;2022-07-21T11:49:39;100940.50;;;40.96;44.23
18835;BME280;9546;59.262;18.036;2022-07-21T11:52:08;100968.13;;;40.68;37.87
18835;BME280;9546;59.262;18.036;2022-07-21T11:54:37;100969.84;;;40.92;40.35
18835;BME280;9546;59.262;18.036;2022-07-21T11:57:06;100965.03;;;40.59;37.37
18835;BME280;9546;59.262;18.036;2022-07-21T11:59:35;100954.47;;;39.86;37.06
18835;BME280;9546;59.262;18.036;2022-07-21T12:02:06;100922.13;;;40.19;36.49
18835;BME280;9546;59.262;18.036;2022-07-21T12:04:36;64177.75;;;-139.62;100.00
18835;BME280;9546;59.262;18.036;2022-07-21T12:07:05;64177.75;;;-139.62;100.00
18835;BME280;9546;59.262;18.036;2022-07-21T12:09:33;64177.75;;;-139.62;100.00
18835;BME280;9546;59.262;18.036;2022-07-21T12:12:00;64177.75;;;-139.62;100.00
18835;BME280;9546;59.262;18.036;2022-07-21T12:14:47;64177.75;;;-139.62;100.00
18835;BME280;9546;59.262;18.036;2022-07-21T12:17:31;64177.75;;;-139.62;100.00
18835;BME280;9546;59.262;18.036;2022-07-21T12:19:58;64177.75;;;-139.62;100.00
18835;BME280;9546;59.262;18.036;2022-07-21T12:22:33;64177.75;;;-139.62;100.00
18835;BME280;9546;59.262;18.036;2022-07-21T12:25:00;64177.75;;;-139.62;100.00
18835;BME280;9546;59.262;18.036;2022-07-21T12:27:27;64177.75;;;-139.62;100.00
18835;BME280;9546;59.262;18.036;2022-07-21T12:29:54;64177.75;;;-139.62;100.00
18835;BME280;9546;59.262;18.036;2022-07-21T12:32:45;64177.75;;;-139.62;100.00
18835;BME280;9546;59.262;18.036;2022-07-21T12:35:34;64177.75;;;-139.62;100.00
18835;BME280;9546;59.262;18.036;2022-07-21T12:38:07;64177.75;;;-139.62;100.00
18835;BME280;9546;59.262;18.036;2022-07-21T12:40:36;64177.75;;;-139.62;100.00
18835;BME280;9546;59.262;18.036;2022-07-21T12:43:08;64177.75;;;-139.62;100.00
18835;BME280;9546;59.262;18.036;2022-07-21T12:45:50;64177.75;;;-139.62;100.00
18835;BME280;9546;59.262;18.036;2022-07-21T12:48:20;64177.75;;;-139.62;100.00
18835;BME280;9546;59.262;18.036;2022-07-21T12:51:07;64177.75;;;-139.62;100.00
18835;BME280;9546;59.262;18.036;2022-07-21T15:12:55;100800.31;;;43.97;39.79
18835;BME280;9546;59.262;18.036;2022-07-21T15:15:22;64177.75;;;-139.62;100.00
18835;BME280;9546;59.262;18.036;2022-07-21T15:17:49;64177.75;;;-139.62;100.00
18835;BME280;9546;59.262;18.036;2022-07-21T15:20:16;64177.75;;;-139.62;100.00
18835;BME280;9546;59.262;18.036;2022-07-21T15:22:43;64177.75;;;-139.62;100.00
18835;BME280;9546;59.262;18.036;2022-07-21T15:25:10;64177.75;;;-139.62;100.00
18835;BME280;9546;59.262;18.036;2022-07-21T15:27:38;64177.75;;;-139.62;100.00
18835;BME280;9546;59.262;18.036;2022-07-21T15:30:09;64177.75;;;-139.62;100.00
18835;BME280;9546;59.262;18.036;2022-07-21T15:32:37;64177.75;;;-139.62;100.00
18835;BME280;9546;59.262;18.036;2022-07-21T15:35:04;64177.75;;;-139.62;100.00
18835;BME280;9546;59.262;18.036;2022-07-21T15:37:31;64177.75;;;-139.62;100.00
18835;BME280;9546;59.262;18.036;2022-07-21T15:39:58;64177.75;;;-139.62;100.00
18835;BME280;9546;59.262;18.036;2022-07-21T15:42:25;64177.75;;;-139.62;100.00
18835;BME280;9546;59.262;18.036;2022-07-21T15:44:53;64177.75;;;-139.62;100.00
18835;BME280;9546;59.262;18.036;2022-07-21T15:47:22;64177.75;;;-139.62;100.00
18835;BME280;9546;59.262;18.036;2022-07-21T15:49:49;64177.75;;;-139.62;100.00
18835;BME280;9546;59.262;18.036;2022-07-21T15:52:16;64177.75;;;-139.62;100.00
18835;BME280;9546;59.262;18.036;2022-07-21T15:54:43;64177.75;;;-139.62;100.00
18835;BME280;9546;59.262;18.036;2022-07-21T15:57:10;64177.75;;;-139.62;100.00
18835;BME280;9546;59.262;18.036;2022-07-21T15:59:37;64177.75;;;-139.62;100.00
18835;BME280;9546;59.262;18.036;2022-07-21T16:02:06;64177.75;;;-139.62;100.00
18835;BME280;9546;59.262;18.036;2022-07-21T16:04:34;64177.75;;;-139.62;100.00
18835;BME280;9546;59.262;18.036;2022-07-21T16:07:02;64177.75;;;-139.62;100.00
18835;BME280;9546;59.262;18.036;2022-07-21T16:09:30;64177.75;;;-139.62;100.00
18835;BME280;9546;59.262;18.036;2022-07-21T16:11:57;64177.75;;;-139.62;100.00
18835;BME280;9546;59.262;18.036;2022-07-21T16:14:25;64177.75;;;-139.62;100.00
18835;BME280;9546;59.262;18.036;2022-07-21T16:16:52;64177.75;;;-139.62;100.00
18835;BME280;9546;59.262;18.036;2022-07-21T16:19:19;64177.75;;;-139.62;100.00
18835;BME280;9546;59.262;18.036;2022-07-21T16:21:48;64177.75;;;-139.62;100.00
18835;BME280;9546;59.262;18.036;2022-07-21T16:24:15;64177.75;;;-139.62;100.00
18835;BME280;9546;59.262;18.036;2022-07-21T16:26:43;64177.75;;;-139.62;100.00
18835;BME280;9546;59.262;18.036;2022-07-21T16:29:10;64177.75;;;-139.62;100.00
18835;BME280;9546;59.262;18.036;2022-07-21T16:31:38;64177.75;;;-139.62;100.00
18835;BME280;9546;59.262;18.036;2022-07-21T16:34:05;64177.75;;;-139.62;100.00
18835;BME280;9546;59.262;18.036;2022-07-21T16:36:33;64177.75;;;-139.62;100.00
18835;BME280;9546;59.262;18.036;2022-07-21T16:39:01;64177.75;;;-139.62;100.00
18835;BME280;9546;59.262;18.036;2022-07-21T16:41:28;64177.75;;;-139.62;100.00
18835;BME280;9546;59.262;18.036;2022-07-21T16:43:55;64177.75;;;-139.62;100.00
18835;BME280;9546;59.262;18.036;2022-07-21T16:46:22;64177.75;;;-139.62;100.00
18835;BME280;9546;59.262;18.036;2022-07-21T16:48:49;64177.75;;;-139.62;100.00
18835;BME280;9546;59.262;18.036;2022-07-21T16:51:16;64177.75;;;-139.62;100.00
18835;BME280;9546;59.262;18.036;2022-07-21T17:12:15;64177.75;;;-139.62;100.00
18835;BME280;9546;59.262;18.036;2022-07-21T17:14:42;64177.75;;;-139.62;100.00
18835;BME280;9546;59.262;18.036;2022-07-21T17:17:09;64177.75;;;-139.62;100.00